sensor_id;sensor_type;location;lat;lon;timestamp;P1;durP1;ratioP1;P2;durP2;ratioP2
24873;SDS011;12945;42.648;23.370;2023-01-01T00:00:55;265.13;;;138.13;;
24873;SDS011;12945;42.648;23.370;2023-01-01T00:03:21;255.70;;;132.85;;
24873;SDS011;12945;42.648;23.370;2023-01-01T00:05:46;230.82;;;120.43;;
24873;SDS011;12945;42.648;23.370;2023-01-01T00:08:12;225.15;;;118.82;;
24873;SDS011;12945;42.648;23.370;2023-01-01T00:10:37;209.27;;;111.40;;
24873;SDS011;12945;42.648;23.370;2023-01-01T00:13:03;205.38;;;106.22;;
24873;SDS011;12945;42.648;23.370;2023-01-01T00:15:28;214.80;;;112.82;;
24873;SDS011;12945;42.648;23.370;2023-01-01T00:17:54;228.13;;;117.28;;
24873;SDS011;12945;42.648;23.370;2023-01-01T00:20:20;212.07;;;112.03;;
24873;SDS011;12945;42.648;23.370;2023-01-01T00:22:46;213.75;;;113.18;;
24873;SDS011;12945;42.648;23.370;2023-01-01T00:25:11;218.85;;;114.88;;
24873;SDS011;12945;42.648;23.370;2023-01-01T00:27:41;216.45;;;115.63;;
24873;SDS011;12945;42.648;23.370;2023-01-01T00:30:07;209.77;;;112.18;;
24873;SDS011;12945;42.648;23.370;2023-01-01T00:32:34;217.40;;;114.82;;
24873;SDS011;12945;42.648;23.370;2023-01-01T00:35:00;218.98;;;118.38;;
24873;SDS011;12945;42.648;23.370;2023-01-01T00:37:26;217.57;;;116.25;;
24873;SDS011;12945;42.648;23.370;2023-01-01T00:39:51;216.38;;;119.00;;
24873;SDS011;12945;42.648;23.370;2023-01-01T00:42:17;226.05;;;118.55;;
24873;SDS011;12945;42.648;23.370;2023-01-01T00:44:42;223.30;;;116.25;;
24873;SDS011;12945;42.648;23.370;2023-01-01T00:47:08;212.18;;;113.88;;
24873;SDS011;12945;42.648;23.370;2023-01-01T00:49:33;206.57;;;107.90;;
24873;SDS011;12945;42.648;23.370;2023-01-01T00:51:59;206.73;;;107.70;;
24873;SDS011;12945;42.648;23.370;2023-01-01T00:54:24;216.85;;;114.45;;
24873;SDS011;12945;42.648;23.370;2023-01-01T00:56:50;218.25;;;115.47;;
24873;SDS011;12945;42.648;23.370;2023-01-01T00:59:15;217.30;;;116.20;;
24873;SDS011;12945;42.648;23.370;2023-01-01T01:01:40;193.75;;;103.60;;
24873;SDS011;12945;42.648;23.370;2023-01-01T01:04:06;209.63;;;110.47;;
24873;SDS011;12945;42.648;23.370;2023-01-01T01:06:33;131.43;;;71.95;;
24873;SDS011;12945;42.648;23.370;2023-01-01T01:08:58;121.38;;;61.15;;
24873;SDS011;12945;42.648;23.370;2023-01-01T01:11:24;106.13;;;55.72;;
24873;SDS011;12945;42.648;23.370;2023-01-01T01:13:51;104.85;;;54.53;;
24873;SDS011;12945;42.648;23.370;2023-01-01T01:16:22;68.95;;;35.35;;
24873;SDS011;12945;42.648;23.370;2023-01-01T01:18:50;58.90;;;30.85;;
24873;SDS011;12945;42.648;23.370;2023-01-01T01:21:18;63.85;;;31.77;;
24873;SDS011;12945;42.648;23.370;2023-01-01T01:23:45;48.50;;;26.52;;
24873;SDS011;12945;42.648;23.370;2023-01-01T01:26:12;36.58;;;21.20;;
24873;SDS011;12945;42.648;23.370;2023-01-01T01:28:48;34.42;;;18.40;;
24873;SDS011;12945;42.648;23.370;2023-01-01T01:31:14;38.30;;;21.73;;
24873;SDS011;12945;42.648;23.370;2023-01-01T01:33:41;52.53;;;27.58;;
24873;SDS011;12945;42.648;23.370;2023-01-01T01:36:08;69.57;;;38.13;;
24873;SDS011;12945;42.648;23.370;2023-01-01T01:38:34;100.50;;;52.03;;
24873;SDS011;12945;42.648;23.370;2023-01-01T01:41:00;94.75;;;49.30;;
24873;SDS011;12945;42.648;23.370;2023-01-01T01:49:05;72.43;;;39.17;;
24873;SDS011;12945;42.648;23.370;2023-01-01T01:51:38;66.22;;;32.95;;
24873;SDS011;12945;42.648;23.370;2023-01-01T01:54:07;49.05;;;27.35;;
24873;SDS011;12945;42.648;23.370;2023-01-01T01:56:44;60.85;;;30.50;;
24873;SDS011;12945;42.648;23.370;2023-01-01T01:59:20;65.20;;;34.08;;
24873;SDS011;12945;42.648;23.370;2023-01-01T02:01:48;67.60;;;33.30;;
24873;SDS011;12945;42.648;23.370;2023-01-01T02:04:14;61.88;;;32.65;;
24873;SDS011;12945;42.648;23.370;2023-01-01T02:06:40;60.47;;;31.30;;
24873;SDS011;12945;42.648;23.370;2023-01-01T02:09:07;75.90;;;37.08;;
24873;SDS011;12945;42.648;23.370;2023-01-01T02:11:33;82.25;;;41.65;;
24873;SDS011;12945;42.648;23.370;2023-01-01T02:13:59;76.03;;;39.72;;
24873;SDS011;12945;42.648;23.370;2023-01-01T02:25:51;67.00;;;35.78;;
24873;SDS011;12945;42.648;23.370;2023-01-01T02:31:25;97.95;;;50.97;;
24873;SDS011;12945;42.648;23.370;2023-01-01T02:33:54;109.63;;;55.35;;
24873;SDS011;12945;42.648;23.370;2023-01-01T02:36:25;151.30;;;75.63;;
24873;SDS011;12945;42.648;23.370;2023-01-01T02:38:53;156.23;;;78.00;;
24873;SDS011;12945;42.648;23.370;2023-01-01T02:41:30;166.32;;;82.75;;
24873;SDS011;12945;42.648;23.370;2023-01-01T02:44:01;153.77;;;77.25;;
24873;SDS011;12945;42.648;23.370;2023-01-01T02:46:34;155.32;;;75.20;;
24873;SDS011;12945;42.648;23.370;2023-01-01T02:49:00;147.20;;;72.47;;
24873;SDS011;12945;42.648;23.370;2023-01-01T02:56:49;144.80;;;69.40;;
24873;SDS011;12945;42.648;23.370;2023-01-01T03:02:41;124.43;;;62.97;;
24873;SDS011;12945;42.648;23.370;2023-01-01T03:11:00;125.38;;;61.42;;
24873;SDS011;12945;42.648;23.370;2023-01-01T03:16:19;121.18;;;58.30;;
24873;SDS011;12945;42.648;23.370;2023-01-01T03:19:09;113.70;;;55.88;;
24873;SDS011;12945;42.648;23.370;2023-01-01T03:21:40;104.15;;;54.97;;
24873;SDS011;12945;42.648;23.370;2023-01-01T03:24:07;98.68;;;52.28;;
24873;SDS011;12945;42.648;23.370;2023-01-01T03:26:36;72.60;;;36.15;;
24873;SDS011;12945;42.648;23.370;2023-01-01T03:29:05;97.05;;;45.83;;
24873;SDS011;12945;42.648;23.370;2023-01-01T03:31:34;92.68;;;46.78;;
24873;SDS011;12945;42.648;23.370;2023-01-01T03:34:05;104.72;;;51.50;;
24873;SDS011;12945;42.648;23.370;2023-01-01T03:36:35;101.28;;;44.55;;
24873;SDS011;12945;42.648;23.370;2023-01-01T03:44:57;125.40;;;61.08;;
24873;SDS011;12945;42.648;23.370;2023-01-01T03:47:28;125.90;;;61.28;;
24873;SDS011;12945;42.648;23.370;2023-01-01T03:49:54;125.50;;;61.33;;
24873;SDS011;12945;42.648;23.370;2023-01-01T03:52:43;122.43;;;61.30;;
24873;SDS011;12945;42.648;23.370;2023-01-01T03:55:28;127.13;;;62.50;;
24873;SDS011;12945;42.648;23.370;2023-01-01T03:58:10;93.18;;;40.95;;
24873;SDS011;12945;42.648;23.370;2023-01-01T04:01:14;111.97;;;54.65;;
24873;SDS011;12945;42.648;23.370;2023-01-01T04:03:47;65.15;;;31.83;;
24873;SDS011;12945;42.648;23.370;2023-01-01T04:06:13;65.70;;;32.25;;
24873;SDS011;12945;42.648;23.370;2023-01-01T04:08:39;78.00;;;35.63;;
24873;SDS011;12945;42.648;23.370;2023-01-01T04:11:09;104.20;;;52.42;;
24873;SDS011;12945;42.648;23.370;2023-01-01T04:13:59;57.30;;;29.45;;
24873;SDS011;12945;42.648;23.370;2023-01-01T04:16:24;74.32;;;35.67;;
24873;SDS011;12945;42.648;23.370;2023-01-01T04:18:49;53.80;;;26.63;;
24873;SDS011;12945;42.648;23.370;2023-01-01T04:21:15;78.97;;;37.55;;
24873;SDS011;12945;42.648;23.370;2023-01-01T04:23:40;47.80;;;25.83;;
24873;SDS011;12945;42.648;23.370;2023-01-01T04:26:10;68.70;;;29.88;;
24873;SDS011;12945;42.648;23.370;2023-01-01T04:28:37;56.65;;;30.05;;
24873;SDS011;12945;42.648;23.370;2023-01-01T04:31:02;65.45;;;31.95;;
24873;SDS011;12945;42.648;23.370;2023-01-01T04:33:28;81.05;;;41.30;;
24873;SDS011;12945;42.648;23.370;2023-01-01T04:35:53;78.28;;;40.28;;
24873;SDS011;12945;42.648;23.370;2023-01-01T04:38:19;52.45;;;26.48;;
24873;SDS011;12945;42.648;23.370;2023-01-01T04:40:44;38.92;;;20.35;;
24873;SDS011;12945;42.648;23.370;2023-01-01T04:43:09;42.80;;;23.20;;
24873;SDS011;12945;42.648;23.370;2023-01-01T04:45:35;37.95;;;21.27;;
24873;SDS011;12945;42.648;23.370;2023-01-01T04:48:04;39.58;;;20.40;;
24873;SDS011;12945;42.648;23.370;2023-01-01T04:50:29;45.40;;;22.92;;
24873;SDS011;12945;42.648;23.370;2023-01-01T04:52:54;45.42;;;22.70;;
24873;SDS011;12945;42.648;23.370;2023-01-01T04:55:22;42.60;;;21.92;;
24873;SDS011;12945;42.648;23.370;2023-01-01T04:57:48;40.00;;;21.55;;
24873;SDS011;12945;42.648;23.370;2023-01-01T05:00:13;39.95;;;21.67;;
24873;SDS011;12945;42.648;23.370;2023-01-01T05:02:39;58.88;;;26.58;;
24873;SDS011;12945;42.648;23.370;2023-01-01T05:05:04;60.30;;;29.92;;
24873;SDS011;12945;42.648;23.370;2023-01-01T05:07:31;58.70;;;31.17;;
24873;SDS011;12945;42.648;23.370;2023-01-01T05:09:57;71.75;;;33.92;;
24873;SDS011;12945;42.648;23.370;2023-01-01T05:12:22;67.88;;;35.65;;
24873;SDS011;12945;42.648;23.370;2023-01-01T05:14:47;64.78;;;33.45;;
24873;SDS011;12945;42.648;23.370;2023-01-01T05:17:13;65.32;;;33.35;;
24873;SDS011;12945;42.648;23.370;2023-01-01T05:19:38;53.45;;;30.45;;
24873;SDS011;12945;42.648;23.370;2023-01-01T05:22:04;63.28;;;29.40;;
24873;SDS011;12945;42.648;23.370;2023-01-01T05:24:30;55.92;;;29.70;;
24873;SDS011;12945;42.648;23.370;2023-01-01T05:27:00;55.00;;;29.55;;
24873;SDS011;12945;42.648;23.370;2023-01-01T05:29:25;57.88;;;27.58;;
24873;SDS011;12945;42.648;23.370;2023-01-01T05:31:51;58.67;;;28.17;;
24873;SDS011;12945;42.648;23.370;2023-01-01T05:34:17;53.28;;;27.05;;
24873;SDS011;12945;42.648;23.370;2023-01-01T05:36:42;60.63;;;31.98;;
24873;SDS011;12945;42.648;23.370;2023-01-01T05:39:09;50.53;;;27.85;;
24873;SDS011;12945;42.648;23.370;2023-01-01T05:41:36;52.90;;;29.77;;
24873;SDS011;12945;42.648;23.370;2023-01-01T05:44:02;51.92;;;27.40;;
24873;SDS011;12945;42.648;23.370;2023-01-01T05:46:29;77.65;;;38.42;;
24873;SDS011;12945;42.648;23.370;2023-01-01T05:48:55;87.78;;;43.05;;
24873;SDS011;12945;42.648;23.370;2023-01-01T05:51:21;99.07;;;47.80;;
24873;SDS011;12945;42.648;23.370;2023-01-01T05:53:48;101.85;;;47.58;;
24873;SDS011;12945;42.648;23.370;2023-01-01T05:56:13;86.07;;;45.08;;
24873;SDS011;12945;42.648;23.370;2023-01-01T05:58:40;48.63;;;26.00;;
24873;SDS011;12945;42.648;23.370;2023-01-01T06:01:25;38.85;;;20.20;;
24873;SDS011;12945;42.648;23.370;2023-01-01T06:03:55;61.80;;;31.38;;
24873;SDS011;12945;42.648;23.370;2023-01-01T06:06:23;70.97;;;34.08;;
24873;SDS011;12945;42.648;23.370;2023-01-01T06:08:51;58.53;;;30.33;;
24873;SDS011;12945;42.648;23.370;2023-01-01T06:11:18;71.28;;;35.83;;
24873;SDS011;12945;42.648;23.370;2023-01-01T06:13:44;61.97;;;29.08;;
24873;SDS011;12945;42.648;23.370;2023-01-01T06:16:09;56.35;;;28.00;;
24873;SDS011;12945;42.648;23.370;2023-01-01T06:18:36;45.15;;;23.85;;
24873;SDS011;12945;42.648;23.370;2023-01-01T06:21:06;77.95;;;37.85;;
24873;SDS011;12945;42.648;23.370;2023-01-01T06:23:34;66.78;;;31.88;;
24873;SDS011;12945;42.648;23.370;2023-01-01T06:26:19;78.65;;;38.72;;
24873;SDS011;12945;42.648;23.370;2023-01-01T06:28:46;76.93;;;39.17;;
24873;SDS011;12945;42.648;23.370;2023-01-01T06:31:12;62.95;;;31.70;;
24873;SDS011;12945;42.648;23.370;2023-01-01T06:33:40;63.28;;;32.53;;
24873;SDS011;12945;42.648;23.370;2023-01-01T06:36:08;56.72;;;27.25;;
24873;SDS011;12945;42.648;23.370;2023-01-01T06:38:36;62.92;;;33.75;;
24873;SDS011;12945;42.648;23.370;2023-01-01T06:41:05;54.80;;;27.77;;
24873;SDS011;12945;42.648;23.370;2023-01-01T06:43:33;66.30;;;32.13;;
24873;SDS011;12945;42.648;23.370;2023-01-01T06:46:03;72.47;;;36.33;;
24873;SDS011;12945;42.648;23.370;2023-01-01T06:48:36;71.47;;;35.50;;
24873;SDS011;12945;42.648;23.370;2023-01-01T06:51:05;65.90;;;34.55;;
24873;SDS011;12945;42.648;23.370;2023-01-01T06:53:35;67.35;;;35.38;;
24873;SDS011;12945;42.648;23.370;2023-01-01T06:56:01;71.35;;;37.17;;
24873;SDS011;12945;42.648;23.370;2023-01-01T06:58:27;64.53;;;33.45;;
24873;SDS011;12945;42.648;23.370;2023-01-01T07:00:52;57.28;;;30.58;;
24873;SDS011;12945;42.648;23.370;2023-01-01T07:03:18;63.75;;;32.08;;
24873;SDS011;12945;42.648;23.370;2023-01-01T07:05:43;59.70;;;30.13;;
24873;SDS011;12945;42.648;23.370;2023-01-01T07:08:09;63.28;;;31.52;;
24873;SDS011;12945;42.648;23.370;2023-01-01T07:10:34;49.30;;;27.45;;
24873;SDS011;12945;42.648;23.370;2023-01-01T07:13:00;63.72;;;30.40;;
24873;SDS011;12945;42.648;23.370;2023-01-01T07:15:25;53.40;;;28.45;;
24873;SDS011;12945;42.648;23.370;2023-01-01T07:17:51;47.75;;;24.80;;
24873;SDS011;12945;42.648;23.370;2023-01-01T07:20:17;45.33;;;22.88;;
24873;SDS011;12945;42.648;23.370;2023-01-01T07:22:42;42.97;;;23.35;;
24873;SDS011;12945;42.648;23.370;2023-01-01T07:25:08;47.88;;;25.00;;
24873;SDS011;12945;42.648;23.370;2023-01-01T07:27:37;49.88;;;26.63;;
24873;SDS011;12945;42.648;23.370;2023-01-01T07:30:03;52.95;;;27.77;;
24873;SDS011;12945;42.648;23.370;2023-01-01T07:32:29;58.47;;;28.20;;
24873;SDS011;12945;42.648;23.370;2023-01-01T07:34:54;46.47;;;26.08;;
24873;SDS011;12945;42.648;23.370;2023-01-01T07:37:19;45.72;;;24.40;;
24873;SDS011;12945;42.648;23.370;2023-01-01T07:39:49;39.42;;;21.73;;
24873;SDS011;12945;42.648;23.370;2023-01-01T07:42:14;42.60;;;22.92;;
24873;SDS011;12945;42.648;23.370;2023-01-01T07:44:40;40.35;;;21.90;;
24873;SDS011;12945;42.648;23.370;2023-01-01T07:47:08;41.22;;;23.48;;
24873;SDS011;12945;42.648;23.370;2023-01-01T07:49:44;42.75;;;23.55;;
24873;SDS011;12945;42.648;23.370;2023-01-01T07:52:09;47.75;;;26.85;;
24873;SDS011;12945;42.648;23.370;2023-01-01T07:54:35;51.13;;;29.35;;
24873;SDS011;12945;42.648;23.370;2023-01-01T07:57:00;77.65;;;39.75;;
24873;SDS011;12945;42.648;23.370;2023-01-01T07:59:25;82.57;;;45.95;;
24873;SDS011;12945;42.648;23.370;2023-01-01T08:01:51;81.53;;;45.85;;
24873;SDS011;12945;42.648;23.370;2023-01-01T08:04:16;94.70;;;52.15;;
24873;SDS011;12945;42.648;23.370;2023-01-01T08:06:41;103.60;;;55.42;;
24873;SDS011;12945;42.648;23.370;2023-01-01T08:09:08;107.90;;;58.15;;
24873;SDS011;12945;42.648;23.370;2023-01-01T08:11:34;107.63;;;56.88;;
24873;SDS011;12945;42.648;23.370;2023-01-01T08:13:59;101.30;;;52.80;;
24873;SDS011;12945;42.648;23.370;2023-01-01T08:16:24;82.00;;;46.92;;
24873;SDS011;12945;42.648;23.370;2023-01-01T08:18:50;75.72;;;43.05;;
24873;SDS011;12945;42.648;23.370;2023-01-01T08:21:15;87.50;;;47.97;;
24873;SDS011;12945;42.648;23.370;2023-01-01T08:23:40;79.32;;;46.85;;
24873;SDS011;12945;42.648;23.370;2023-01-01T08:26:06;91.03;;;49.58;;
24873;SDS011;12945;42.648;23.370;2023-01-01T08:28:31;99.15;;;54.75;;
24873;SDS011;12945;42.648;23.370;2023-01-01T08:30:57;110.38;;;58.35;;
24873;SDS011;12945;42.648;23.370;2023-01-01T08:33:23;108.82;;;59.10;;
24873;SDS011;12945;42.648;23.370;2023-01-01T08:35:50;108.55;;;61.97;;
24873;SDS011;12945;42.648;23.370;2023-01-01T08:38:15;110.95;;;63.53;;
24873;SDS011;12945;42.648;23.370;2023-01-01T08:40:40;113.88;;;65.28;;
24873;SDS011;12945;42.648;23.370;2023-01-01T08:43:06;113.32;;;64.40;;
24873;SDS011;12945;42.648;23.370;2023-01-01T08:45:31;122.88;;;66.40;;
24873;SDS011;12945;42.648;23.370;2023-01-01T08:47:57;112.53;;;65.78;;
24873;SDS011;12945;42.648;23.370;2023-01-01T08:50:23;116.72;;;66.75;;
24873;SDS011;12945;42.648;23.370;2023-01-01T08:52:48;118.10;;;68.57;;
24873;SDS011;12945;42.648;23.370;2023-01-01T08:55:13;125.00;;;68.95;;
24873;SDS011;12945;42.648;23.370;2023-01-01T08:57:39;120.85;;;72.70;;
24873;SDS011;12945;42.648;23.370;2023-01-01T09:00:04;114.28;;;68.20;;
24873;SDS011;12945;42.648;23.370;2023-01-01T09:02:33;114.93;;;65.00;;
24873;SDS011;12945;42.648;23.370;2023-01-01T09:04:58;107.85;;;62.88;;
24873;SDS011;12945;42.648;23.370;2023-01-01T09:07:23;104.75;;;60.20;;
24873;SDS011;12945;42.648;23.370;2023-01-01T09:09:49;98.63;;;58.60;;
24873;SDS011;12945;42.648;23.370;2023-01-01T09:12:15;95.72;;;56.20;;
24873;SDS011;12945;42.648;23.370;2023-01-01T09:14:41;90.82;;;54.55;;
24873;SDS011;12945;42.648;23.370;2023-01-01T09:17:06;90.63;;;54.70;;
24873;SDS011;12945;42.648;23.370;2023-01-01T09:19:32;91.78;;;55.13;;
24873;SDS011;12945;42.648;23.370;2023-01-01T09:21:57;88.45;;;54.50;;
24873;SDS011;12945;42.648;23.370;2023-01-01T09:24:23;86.20;;;54.53;;
24873;SDS011;12945;42.648;23.370;2023-01-01T09:26:49;89.78;;;53.78;;
24873;SDS011;12945;42.648;23.370;2023-01-01T09:29:14;81.45;;;50.95;;
24873;SDS011;12945;42.648;23.370;2023-01-01T09:31:44;78.20;;;50.28;;
24873;SDS011;12945;42.648;23.370;2023-01-01T09:34:10;105.13;;;51.70;;
24873;SDS011;12945;42.648;23.370;2023-01-01T09:36:36;100.82;;;51.05;;
24873;SDS011;12945;42.648;23.370;2023-01-01T09:39:02;97.25;;;51.50;;
24873;SDS011;12945;42.648;23.370;2023-01-01T09:44:23;77.68;;;47.45;;
24873;SDS011;12945;42.648;23.370;2023-01-01T09:46:54;88.97;;;47.85;;
24873;SDS011;12945;42.648;23.370;2023-01-01T09:49:28;79.72;;;46.00;;
24873;SDS011;12945;42.648;23.370;2023-01-01T09:51:59;76.60;;;45.92;;
24873;SDS011;12945;42.648;23.370;2023-01-01T09:57:16;77.60;;;45.58;;
24873;SDS011;12945;42.648;23.370;2023-01-01T09:59:42;72.93;;;45.28;;
24873;SDS011;12945;42.648;23.370;2023-01-01T10:05:20;74.30;;;44.92;;
24873;SDS011;12945;42.648;23.370;2023-01-01T10:11:07;74.43;;;46.58;;
24873;SDS011;12945;42.648;23.370;2023-01-01T10:13:41;75.35;;;45.80;;
24873;SDS011;12945;42.648;23.370;2023-01-01T10:16:51;80.43;;;47.58;;
24873;SDS011;12945;42.648;23.370;2023-01-01T10:19:01;70.97;;;44.72;;
24873;SDS011;12945;42.648;23.370;2023-01-01T10:21:47;70.63;;;45.13;;
24873;SDS011;12945;42.648;23.370;2023-01-01T10:27:01;66.88;;;44.15;;
24873;SDS011;12945;42.648;23.370;2023-01-01T10:29:49;69.75;;;44.58;;
24873;SDS011;12945;42.648;23.370;2023-01-01T10:32:18;64.15;;;44.40;;
24873;SDS011;12945;42.648;23.370;2023-01-01T10:34:49;67.45;;;43.97;;
24873;SDS011;12945;42.648;23.370;2023-01-01T10:37:15;61.00;;;42.70;;
24873;SDS011;12945;42.648;23.370;2023-01-01T10:39:41;72.53;;;43.45;;
24873;SDS011;12945;42.648;23.370;2023-01-01T10:42:12;66.68;;;41.85;;
24873;SDS011;12945;42.648;23.370;2023-01-01T10:44:39;63.67;;;41.35;;
24873;SDS011;12945;42.648;23.370;2023-01-01T10:49:52;61.65;;;40.05;;
24873;SDS011;12945;42.648;23.370;2023-01-01T10:52:21;60.92;;;39.35;;
24873;SDS011;12945;42.648;23.370;2023-01-01T10:54:50;55.85;;;38.53;;
24873;SDS011;12945;42.648;23.370;2023-01-01T10:57:29;66.53;;;39.63;;
24873;SDS011;12945;42.648;23.370;2023-01-01T11:02:36;60.95;;;38.13;;
24873;SDS011;12945;42.648;23.370;2023-01-01T11:05:16;55.25;;;37.47;;
24873;SDS011;12945;42.648;23.370;2023-01-01T11:07:45;57.53;;;36.50;;
24873;SDS011;12945;42.648;23.370;2023-01-01T11:10:16;55.17;;;36.75;;
24873;SDS011;12945;42.648;23.370;2023-01-01T11:12:44;50.22;;;34.92;;
24873;SDS011;12945;42.648;23.370;2023-01-01T11:15:19;54.50;;;36.63;;
24873;SDS011;12945;42.648;23.370;2023-01-01T11:18:04;52.65;;;35.00;;
24873;SDS011;12945;42.648;23.370;2023-01-01T11:20:35;57.22;;;37.13;;
24873;SDS011;12945;42.648;23.370;2023-01-01T11:23:15;51.83;;;34.08;;
24873;SDS011;12945;42.648;23.370;2023-01-01T11:25:56;53.40;;;34.78;;
24873;SDS011;12945;42.648;23.370;2023-01-01T11:28:25;55.15;;;33.83;;
24873;SDS011;12945;42.648;23.370;2023-01-01T11:36:24;43.95;;;30.13;;
24873;SDS011;12945;42.648;23.370;2023-01-01T11:41:50;54.83;;;29.50;;
24873;SDS011;12945;42.648;23.370;2023-01-01T11:44:26;43.42;;;28.73;;
24873;SDS011;12945;42.648;23.370;2023-01-01T11:46:54;43.30;;;28.45;;
24873;SDS011;12945;42.648;23.370;2023-01-01T11:49:21;44.33;;;28.95;;
24873;SDS011;12945;42.648;23.370;2023-01-01T11:51:49;43.72;;;27.10;;
24873;SDS011;12945;42.648;23.370;2023-01-01T11:56:53;47.33;;;29.92;;
24873;SDS011;12945;42.648;23.370;2023-01-01T11:59:24;46.30;;;30.23;;
24873;SDS011;12945;42.648;23.370;2023-01-01T12:01:56;43.80;;;29.77;;
24873;SDS011;12945;42.648;23.370;2023-01-01T12:07:18;39.72;;;26.60;;
24873;SDS011;12945;42.648;23.370;2023-01-01T12:12:38;37.47;;;24.23;;
24873;SDS011;12945;42.648;23.370;2023-01-01T12:15:15;31.77;;;23.40;;
24873;SDS011;12945;42.648;23.370;2023-01-01T12:17:57;36.50;;;24.15;;
24873;SDS011;12945;42.648;23.370;2023-01-01T12:20:34;37.70;;;26.33;;
24873;SDS011;12945;42.648;23.370;2023-01-01T12:23:04;39.67;;;25.55;;
24873;SDS011;12945;42.648;23.370;2023-01-01T12:25:40;34.08;;;22.92;;
24873;SDS011;12945;42.648;23.370;2023-01-01T12:31:18;36.75;;;24.75;;
24873;SDS011;12945;42.648;23.370;2023-01-01T12:36:31;33.97;;;22.67;;
24873;SDS011;12945;42.648;23.370;2023-01-01T12:45:25;36.63;;;23.83;;
24873;SDS011;12945;42.648;23.370;2023-01-01T12:51:09;38.42;;;25.55;;
24873;SDS011;12945;42.648;23.370;2023-01-01T12:56:29;39.55;;;25.67;;
24873;SDS011;12945;42.648;23.370;2023-01-01T12:59:17;38.22;;;25.67;;
24873;SDS011;12945;42.648;23.370;2023-01-01T13:01:47;35.22;;;25.08;;
24873;SDS011;12945;42.648;23.370;2023-01-01T13:04:16;39.13;;;25.88;;
24873;SDS011;12945;42.648;23.370;2023-01-01T13:06:49;40.13;;;26.17;;
24873;SDS011;12945;42.648;23.370;2023-01-01T13:09:28;38.65;;;26.95;;
24873;SDS011;12945;42.648;23.370;2023-01-01T13:12:10;38.63;;;26.75;;
24873;SDS011;12945;42.648;23.370;2023-01-01T13:14:40;43.63;;;28.23;;
24873;SDS011;12945;42.648;23.370;2023-01-01T13:20:16;36.40;;;25.45;;
24873;SDS011;12945;42.648;23.370;2023-01-01T13:22:48;37.20;;;25.48;;
24873;SDS011;12945;42.648;23.370;2023-01-01T13:38:49;40.35;;;24.63;;
24873;SDS011;12945;42.648;23.370;2023-01-01T13:44:17;34.50;;;23.20;;
24873;SDS011;12945;42.648;23.370;2023-01-01T14:03:45;39.47;;;25.42;;
24873;SDS011;12945;42.648;23.370;2023-01-01T14:06:23;42.25;;;25.85;;
24873;SDS011;12945;42.648;23.370;2023-01-01T14:09:32;46.22;;;26.83;;
24873;SDS011;12945;42.648;23.370;2023-01-01T14:11:50;46.95;;;27.92;;
24873;SDS011;12945;42.648;23.370;2023-01-01T14:16:49;44.20;;;29.60;;
24873;SDS011;12945;42.648;23.370;2023-01-01T14:19:14;46.25;;;29.80;;
24873;SDS011;12945;42.648;23.370;2023-01-01T14:21:40;46.75;;;29.45;;
24873;SDS011;12945;42.648;23.370;2023-01-01T14:24:06;50.95;;;30.55;;
24873;SDS011;12945;42.648;23.370;2023-01-01T14:26:33;52.35;;;30.15;;
24873;SDS011;12945;42.648;23.370;2023-01-01T14:29:01;47.25;;;31.35;;
24873;SDS011;12945;42.648;23.370;2023-01-01T14:31:30;55.00;;;32.75;;
24873;SDS011;12945;42.648;23.370;2023-01-01T14:33:56;51.15;;;32.45;;
24873;SDS011;12945;42.648;23.370;2023-01-01T14:36:26;52.97;;;33.83;;
24873;SDS011;12945;42.648;23.370;2023-01-01T14:38:52;59.17;;;35.30;;
24873;SDS011;12945;42.648;23.370;2023-01-01T14:41:27;58.03;;;34.40;;
24873;SDS011;12945;42.648;23.370;2023-01-01T14:43:56;61.28;;;33.90;;
24873;SDS011;12945;42.648;23.370;2023-01-01T14:46:25;57.63;;;33.97;;
24873;SDS011;12945;42.648;23.370;2023-01-01T14:48:55;59.13;;;33.45;;
24873;SDS011;12945;42.648;23.370;2023-01-01T14:51:22;58.88;;;32.40;;
24873;SDS011;12945;42.648;23.370;2023-01-01T14:53:48;56.17;;;32.47;;
24873;SDS011;12945;42.648;23.370;2023-01-01T14:56:48;54.53;;;32.80;;
24873;SDS011;12945;42.648;23.370;2023-01-01T14:59:09;61.42;;;32.40;;
24873;SDS011;12945;42.648;23.370;2023-01-01T15:01:35;53.72;;;33.05;;
24873;SDS011;12945;42.648;23.370;2023-01-01T15:04:12;54.25;;;33.63;;
24873;SDS011;12945;42.648;23.370;2023-01-01T15:06:40;51.30;;;32.67;;
24873;SDS011;12945;42.648;23.370;2023-01-01T15:09:05;52.13;;;31.55;;
24873;SDS011;12945;42.648;23.370;2023-01-01T15:11:30;55.00;;;33.08;;
24873;SDS011;12945;42.648;23.370;2023-01-01T15:13:59;56.13;;;31.70;;
24873;SDS011;12945;42.648;23.370;2023-01-01T15:16:24;60.30;;;32.28;;
24873;SDS011;12945;42.648;23.370;2023-01-01T15:18:50;53.67;;;31.67;;
24873;SDS011;12945;42.648;23.370;2023-01-01T15:21:20;52.53;;;30.95;;
24873;SDS011;12945;42.648;23.370;2023-01-01T15:26:21;52.05;;;30.55;;
24873;SDS011;12945;42.648;23.370;2023-01-01T15:28:48;52.30;;;30.50;;
24873;SDS011;12945;42.648;23.370;2023-01-01T15:31:13;60.65;;;30.77;;
24873;SDS011;12945;42.648;23.370;2023-01-01T15:33:39;53.47;;;31.95;;
24873;SDS011;12945;42.648;23.370;2023-01-01T15:36:09;58.53;;;32.45;;
24873;SDS011;12945;42.648;23.370;2023-01-01T15:38:34;56.97;;;32.97;;
24873;SDS011;12945;42.648;23.370;2023-01-01T15:41:21;62.97;;;33.78;;
24873;SDS011;12945;42.648;23.370;2023-01-01T15:43:46;58.63;;;34.10;;
24873;SDS011;12945;42.648;23.370;2023-01-01T15:46:18;60.92;;;34.60;;
24873;SDS011;12945;42.648;23.370;2023-01-01T15:48:50;59.67;;;35.40;;
24873;SDS011;12945;42.648;23.370;2023-01-01T15:51:16;60.88;;;34.88;;
24873;SDS011;12945;42.648;23.370;2023-01-01T15:56:21;67.78;;;36.47;;
24873;SDS011;12945;42.648;23.370;2023-01-01T16:01:24;59.15;;;34.58;;
24873;SDS011;12945;42.648;23.370;2023-01-01T16:03:51;64.25;;;37.88;;
24873;SDS011;12945;42.648;23.370;2023-01-01T16:06:19;74.20;;;38.95;;
24873;SDS011;12945;42.648;23.370;2023-01-01T16:08:45;65.13;;;37.95;;
24873;SDS011;12945;42.648;23.370;2023-01-01T16:11:11;67.47;;;37.70;;
24873;SDS011;12945;42.648;23.370;2023-01-01T16:13:36;57.30;;;33.85;;
24873;SDS011;12945;42.648;23.370;2023-01-01T16:16:02;65.45;;;36.00;;
24873;SDS011;12945;42.648;23.370;2023-01-01T16:18:31;64.45;;;35.10;;
24873;SDS011;12945;42.648;23.370;2023-01-01T16:20:57;71.47;;;36.55;;
24873;SDS011;12945;42.648;23.370;2023-01-01T16:23:22;63.10;;;37.80;;
24873;SDS011;12945;42.648;23.370;2023-01-01T16:25:47;77.50;;;40.13;;
24873;SDS011;12945;42.648;23.370;2023-01-01T16:28:13;76.93;;;40.00;;
24873;SDS011;12945;42.648;23.370;2023-01-01T16:30:38;71.22;;;37.65;;
24873;SDS011;12945;42.648;23.370;2023-01-01T16:33:04;71.35;;;38.15;;
24873;SDS011;12945;42.648;23.370;2023-01-01T16:35:34;62.72;;;37.03;;
24873;SDS011;12945;42.648;23.370;2023-01-01T16:37:59;77.15;;;37.65;;